sensor_id;sensor_type;location;lat;lon;timestamp;pressure;altitude;pressure_sealevel;temperature;humidity
9229;BME280;4649;42.644;23.284;2023-03-13T06:05:05;93412.41;;;19.17;23.38
9229;BME280;4649;42.644;23.284;2023-03-13T06:07:49;93473.81;;;20.53;21.57
9229;BME280;4649;42.644;23.284;2023-03-13T06:10:54;93491.06;;;21.26;20.83
9229;BME280;4649;42.644;23.284;2023-03-13T06:13:22;93447.00;;;21.41;20.70
9229;BME280;4649;42.644;23.284;2023-03-13T06:15:52;93499.72;;;21.82;20.47
9229;BME280;4649;42.644;23.284;2023-03-13T06:18:23;93470.28;;;22.00;19.83
9229;BME280;4649;42.644;23.284;2023-03-13T06:20:55;93371.53;;;19.97;21.12
9229;BME280;4649;42.644;23.284;2023-03-13T06:23:23;93487.00;;;22.63;19.17
9229;BME280;4649;42.644;23.284;2023-03-13T06:25:51;93501.31;;;22.76;18.82
9229;BME280;4649;42.644;23.284;2023-03-13T06:28:27;93406.63;;;21.29;19.14
9229;BME280;4649;42.644;23.284;2023-03-13T06:30:54;93385.59;;;21.85;18.32
9229;BME280;4649;42.644;23.284;2023-03-13T06:36:46;93488.78;;;23.15;18.21
9229;BME280;4649;42.644;23.284;2023-03-13T06:39:16;93376.69;;;23.12;17.03
9229;BME280;4649;42.644;23.284;2023-03-13T06:41:51;93329.66;;;23.60;16.66
9229;BME280;4649;42.644;23.284;2023-03-13T06:44:24;93387.31;;;23.39;17.15
9229;BME280;4649;42.644;23.284;2023-03-13T06:46:53;93345.84;;;23.23;16.75
9229;BME280;4649;42.644;23.284;2023-03-13T06:49:20;93483.75;;;24.68;15.87
9229;BME280;4649;42.644;23.284;2023-03-13T06:51:50;93478.69;;;24.57;16.21
9229;BME280;4649;42.644;23.284;2023-03-13T06:54:31;93338.03;;;24.03;16.03
9229;BME280;4649;42.644;23.284;2023-03-13T06:57:01;93466.38;;;25.11;15.72
9229;BME280;4649;42.644;23.284;2023-03-13T06:59:29;93484.19;;;24.74;15.85
9229;BME280;4649;42.644;23.284;2023-03-13T07:02:00;93485.03;;;26.27;14.91
9229;BME280;4649;42.644;23.284;2023-03-13T07:04:27;93432.16;;;26.06;14.69
9229;BME280;4649;42.644;23.284;2023-03-13T07:06:57;93436.56;;;26.85;14.44
9229;BME280;4649;42.644;23.284;2023-03-13T07:09:24;93409.63;;;25.03;15.33
9229;BME280;4649;42.644;23.284;2023-03-13T07:11:52;93477.84;;;26.05;14.92
9229;BME280;4649;42.644;23.284;2023-03-13T07:14:19;93459.97;;;27.80;13.77
9229;BME280;4649;42.644;23.284;2023-03-13T07:16:46;93425.56;;;26.87;13.85
9229;BME280;4649;42.644;23.284;2023-03-13T07:19:13;93429.47;;;27.12;14.33
9229;BME280;4649;42.644;23.284;2023-03-13T07:21:41;93452.25;;;27.29;14.59
9229;BME280;4649;42.644;23.284;2023-03-13T07:24:11;93435.66;;;28.32;13.85
9229;BME280;4649;42.644;23.284;2023-03-13T07:26:41;93465.69;;;29.73;12.51
9229;BME280;4649;42.644;23.284;2023-03-13T07:29:09;93435.50;;;29.81;12.29
9229;BME280;4649;42.644;23.284;2023-03-13T07:31:36;93436.28;;;28.00;13.48
9229;BME280;4649;42.644;23.284;2023-03-13T07:34:04;93384.63;;;26.87;14.04
9229;BME280;4649;42.644;23.284;2023-03-13T07:36:35;93477.56;;;29.51;12.74
9229;BME280;4649;42.644;23.284;2023-03-13T07:39:02;93474.56;;;28.62;12.81
9229;BME280;4649;42.644;23.284;2023-03-13T07:41:32;93391.50;;;28.17;12.85
9229;BME280;4649;42.644;23.284;2023-03-13T07:43:59;93348.50;;;26.97;13.05
9229;BME280;4649;42.644;23.284;2023-03-13T07:46:26;93474.56;;;28.20;13.04
9229;BME280;4649;42.644;23.284;2023-03-13T07:48:54;93392.06;;;28.89;12.19
9229;BME280;4649;42.644;23.284;2023-03-13T07:51:22;93433.75;;;28.87;12.82
9229;BME280;4649;42.644;23.284;2023-03-13T07:53:51;93482.47;;;29.96;12.49
9229;BME280;4649;42.644;23.284;2023-03-13T07:56:19;93401.50;;;28.84;12.49
9229;BME280;4649;42.644;23.284;2023-03-13T07:58:50;93372.81;;;29.04;12.40
9229;BME280;4649;42.644;23.284;2023-03-13T08:01:19;93420.88;;;28.82;12.27
9229;BME280;4649;42.644;23.284;2023-03-13T08:03:48;93391.88;;;27.81;13.22
9229;BME280;4649;42.644;23.284;2023-03-13T08:06:17;93452.97;;;29.70;12.06
9229;BME280;4649;42.644;23.284;2023-03-13T08:08:46;93392.41;;;29.84;11.81
9229;BME280;4649;42.644;23.284;2023-03-13T08:11:15;93457.16;;;28.73;12.75
9229;BME280;4649;42.644;23.284;2023-03-13T08:13:43;93468.13;;;30.47;11.87
9229;BME280;4649;42.644;23.284;2023-03-13T08:16:15;93440.09;;;29.77;12.24
9229;BME280;4649;42.644;23.284;2023-03-13T08:18:44;93398.00;;;29.96;11.55
9229;BME280;4649;42.644;23.284;2023-03-13T08:21:13;93403.69;;;29.41;11.85
9229;BME280;4649;42.644;23.284;2023-03-13T08:23:41;93417.28;;;28.91;12.59
9229;BME280;4649;42.644;23.284;2023-03-13T08:26:12;93427.44;;;27.52;13.86
9229;BME280;4649;42.644;23.284;2023-03-13T08:28:41;93421.06;;;28.22;13.12
9229;BME280;4649;42.644;23.284;2023-03-13T08:31:27;93296.44;;;27.58;13.15
9229;BME280;4649;42.644;23.284;2023-03-13T08:33:56;93480.19;;;28.52;12.90
9229;BME280;4649;42.644;23.284;2023-03-13T08:36:25;93421.34;;;28.26;13.32
9229;BME280;4649;42.644;23.284;2023-03-13T08:38:57;93485.06;;;28.01;13.71
9229;BME280;4649;42.644;23.284;2023-03-13T08:41:26;93440.47;;;27.59;13.36
9229;BME280;4649;42.644;23.284;2023-03-13T08:43:54;93429.53;;;27.03;14.16
9229;BME280;4649;42.644;23.284;2023-03-13T08:46:25;93375.91;;;28.02;12.79
9229;BME280;4649;42.644;23.284;2023-03-13T08:48:53;93342.25;;;27.57;13.47
9229;BME280;4649;42.644;23.284;2023-03-13T08:51:22;93317.19;;;25.62;13.70
9229;BME280;4649;42.644;23.284;2023-03-13T08:53:50;93413.31;;;20.68;17.78
9229;BME280;4649;42.644;23.284;2023-03-13T08:56:24;93467.00;;;23.50;17.41
9229;BME280;4649;42.644;23.284;2023-03-13T08:58:54;93419.19;;;26.46;14.92
9229;BME280;4649;42.644;23.284;2023-03-13T09:01:26;93441.34;;;27.52;14.07
9229;BME280;4649;42.644;23.284;2023-03-13T09:03:54;93462.56;;;29.24;12.97
9229;BME280;4649;42.644;23.284;2023-03-13T09:06:22;93421.31;;;29.89;12.15
9229;BME280;4649;42.644;23.284;2023-03-13T09:08:49;93477.97;;;28.19;13.83
9229;BME280;4649;42.644;23.284;2023-03-13T09:11:19;93464.19;;;27.02;13.67
9229;BME280;4649;42.644;23.284;2023-03-13T09:13:50;93426.53;;;27.59;13.39
9229;BME280;4649;42.644;23.284;2023-03-13T09:16:19;93411.50;;;28.04;13.11
9229;BME280;4649;42.644;23.284;2023-03-13T09:18:49;93302.16;;;26.31;13.69
9229;BME280;4649;42.644;23.284;2023-03-13T09:21:19;93355.91;;;24.89;14.72
9229;BME280;4649;42.644;23.284;2023-03-13T09:26:22;93475.09;;;24.31;16.76
9229;BME280;4649;42.644;23.284;2023-03-13T09:28:53;93401.16;;;23.97;16.81
9229;BME280;4649;42.644;23.284;2023-03-13T09:31:24;93408.03;;;23.72;17.37
9229;BME280;4649;42.644;23.284;2023-03-13T09:33:53;93414.84;;;21.06;19.55
9229;BME280;4649;42.644;23.284;2023-03-13T09:36:23;93365.47;;;22.14;18.25
